createdAt,value
2019-03-24T00:00:26.879Z,26.60
2019-03-24T00:02:53.696Z,26.27
2019-03-24T00:05:20.323Z,26.35
2019-03-24T00:07:47.115Z,26.68
2019-03-24T00:10:14.769Z,26.73
2019-03-24T00:12:41.592Z,26.30
2019-03-24T00:15:08.545Z,24.12
2019-03-24T00:17:35.259Z,24.87
2019-03-24T00:20:06.786Z,23.40
2019-03-24T00:22:33.502Z,24.32
2019-03-24T00:25:00.355Z,23.80
2019-03-24T00:27:26.986Z,23.15
2019-03-24T00:29:56.464Z,24.37
2019-03-24T00:32:23.144Z,25.45
2019-03-24T00:34:49.803Z,25.20
2019-03-24T00:37:16.448Z,24.65
2019-03-24T00:39:43.150Z,24.72
2019-03-24T00:42:09.776Z,24.92
2019-03-24T00:44:36.488Z,24.52
2019-03-24T00:47:03.320Z,24.82
2019-03-24T00:49:29.964Z,24.85
2019-03-24T00:51:56.642Z,23.45
2019-03-24T00:54:23.347Z,24.67
2019-03-24T00:56:49.962Z,23.22
2019-03-24T00:59:16.607Z,23.62
2019-03-24T01:01:43.417Z,23.22
2019-03-24T01:04:10.050Z,24.45
2019-03-24T01:06:36.727Z,24.45
2019-03-24T01:09:05.818Z,23.92
2019-03-24T01:11:33.374Z,24.10
2019-03-24T01:14:00.018Z,23.75
2019-03-24T01:16:26.732Z,23.73
2019-03-24T01:18:53.359Z,24.65
2019-03-24T01:21:20.027Z,24.80
2019-03-24T01:23:46.735Z,23.98
2019-03-24T01:26:13.437Z,23.65
2019-03-24T01:28:40.139Z,23.67
2019-03-24T01:31:06.883Z,23.98
2019-03-24T01:33:33.586Z,23.38
2019-03-24T01:36:00.271Z,25.60
2019-03-24T01:38:28.091Z,23.70
2019-03-24T01:40:54.714Z,26.40
2019-03-24T01:43:21.413Z,24.10
2019-03-24T01:45:58.215Z,25.10
2019-03-24T01:48:16.703Z,24.90
2019-03-24T01:50:43.358Z,24.90
2019-03-24T01:53:10.105Z,24.70
2019-03-24T01:55:36.746Z,24.60
2019-03-24T01:58:03.412Z,24.43
2019-03-24T02:00:30.118Z,23.92
2019-03-24T02:02:56.756Z,23.65
2019-03-24T02:05:23.490Z,25.05
2019-03-24T02:07:50.182Z,24.50
2019-03-24T02:10:17.095Z,24.32
2019-03-24T02:12:44.149Z,23.87
2019-03-24T02:15:11.186Z,23.73
2019-03-24T02:17:38.888Z,24.10
2019-03-24T02:20:06.284Z,25.10
2019-03-24T02:22:32.989Z,23.42
2019-03-24T02:24:59.687Z,25.10
2019-03-24T02:27:26.382Z,25.35
2019-03-24T02:29:53.110Z,25.02
2019-03-24T02:32:19.846Z,26.45
2019-03-24T02:34:46.495Z,23.65
2019-03-24T02:37:13.205Z,24.70
2019-03-24T02:39:39.840Z,26.02
2019-03-24T02:42:06.452Z,24.55
2019-03-24T02:44:33.189Z,25.32
2019-03-24T02:46:59.796Z,25.17
2019-03-24T02:49:26.400Z,24.98
2019-03-24T02:51:53.102Z,24.40
2019-03-24T02:54:19.745Z,23.83
2019-03-24T02:56:46.365Z,23.60
2019-03-24T02:59:13.071Z,23.50
2019-03-24T03:01:39.696Z,23.22
2019-03-24T03:04:06.333Z,23.10
2019-03-24T03:06:33.046Z,23.05
2019-03-24T03:08:59.720Z,22.22
2019-03-24T03:11:26.383Z,21.95
2019-03-24T03:13:53.194Z,22.35
2019-03-24T03:16:19.898Z,23.55
2019-03-24T03:18:46.603Z,23.60
2019-03-24T03:21:13.293Z,23.38
2019-03-24T03:23:39.907Z,23.73
2019-03-24T03:26:06.607Z,24.40
2019-03-24T03:28:33.307Z,24.10
2019-03-24T03:31:00.015Z,22.55
2019-03-24T03:33:26.725Z,23.52
2019-03-24T03:35:53.470Z,24.50
2019-03-24T03:38:20.095Z,22.93
2019-03-24T03:40:46.837Z,21.87
2019-03-24T03:43:13.551Z,23.42
2019-03-24T03:45:40.281Z,23.32
2019-03-24T03:48:06.982Z,24.25
2019-03-24T03:50:33.731Z,24.35
2019-03-24T03:53:00.357Z,23.83
2019-03-24T03:55:27.032Z,23.52
2019-03-24T03:57:53.719Z,23.25
2019-03-24T04:00:34.026Z,23.80
2019-03-24T04:03:03.299Z,24.02
2019-03-24T04:05:30.059Z,23.30
2019-03-24T04:07:56.792Z,25.05
2019-03-24T04:10:23.455Z,22.15
2019-03-24T04:12:50.194Z,24.65
2019-03-24T04:15:16.883Z,24.63
2019-03-24T04:17:43.532Z,24.05
2019-03-24T04:20:10.513Z,24.32
2019-03-24T04:22:37.155Z,24.20
2019-03-24T04:25:05.412Z,24.10
2019-03-24T04:27:32.164Z,25.17
2019-03-24T04:29:58.797Z,23.47
2019-03-24T04:32:25.496Z,23.40
2019-03-24T04:34:52.207Z,24.18
2019-03-24T04:37:18.838Z,24.25
2019-03-24T04:39:45.519Z,24.18
2019-03-24T04:42:12.254Z,24.15
2019-03-24T04:44:39.007Z,23.42
2019-03-24T04:47:16.387Z,24.27
2019-03-24T04:49:35.378Z,23.40
2019-03-24T04:52:01.983Z,23.32
2019-03-24T04:54:28.653Z,23.22
2019-03-24T04:56:55.331Z,23.80
2019-03-24T04:59:22.043Z,25.43
2019-03-24T05:01:48.759Z,25.85
2019-03-24T05:04:15.503Z,26.20
2019-03-24T05:06:42.333Z,26.48
2019-03-24T05:09:08.999Z,28.07
2019-03-24T05:11:35.699Z,26.25
2019-03-24T05:14:02.360Z,25.77
2019-03-24T05:16:30.162Z,28.60
2019-03-24T05:18:56.892Z,27.45
2019-03-24T05:21:23.519Z,26.12
2019-03-24T05:23:50.205Z,25.80
2019-03-24T05:26:16.888Z,26.50
2019-03-24T05:28:43.725Z,28.55
2019-03-24T05:31:10.445Z,27.80
2019-03-24T05:33:37.155Z,32.25
2019-03-24T05:36:03.786Z,30.82
2019-03-24T05:38:30.479Z,32.00
2019-03-24T05:40:57.177Z,33.42
2019-03-24T05:43:23.893Z,32.78
2019-03-24T05:45:50.526Z,29.95
2019-03-24T05:48:17.325Z,29.60
2019-03-24T05:50:43.958Z,31.87
2019-03-24T05:53:10.648Z,31.93
2019-03-24T05:55:37.427Z,34.55
2019-03-24T05:58:04.073Z,79.20
2019-03-24T06:00:30.753Z,58.08
2019-03-24T06:02:57.490Z,50.10
2019-03-24T06:05:24.106Z,45.38
2019-03-24T06:07:50.810Z,46.58
2019-03-24T06:10:17.494Z,36.25
2019-03-24T06:12:44.139Z,34.33
2019-03-24T06:15:10.811Z,27.07
2019-03-24T06:17:47.179Z,24.65
2019-03-24T06:20:06.460Z,26.95
2019-03-24T06:22:33.188Z,26.55
2019-03-24T06:24:59.904Z,23.55
2019-03-24T06:27:26.515Z,24.43
2019-03-24T06:29:53.191Z,22.85
2019-03-24T06:32:19.889Z,21.87
2019-03-24T06:34:46.602Z,22.80
2019-03-24T06:37:13.339Z,23.67
2019-03-24T06:39:40.053Z,23.42
2019-03-24T06:42:06.767Z,22.58
2019-03-24T06:44:33.538Z,22.27
2019-03-24T06:47:00.250Z,23.27
2019-03-24T06:49:26.953Z,22.40
2019-03-24T06:51:53.672Z,26.73
2019-03-24T06:54:20.380Z,33.25
2019-03-24T06:56:47.019Z,28.02
2019-03-24T06:59:13.689Z,26.87
2019-03-24T07:01:40.426Z,24.87
2019-03-24T07:04:07.033Z,24.15
2019-03-24T07:06:34.814Z,25.43
2019-03-24T07:09:01.701Z,23.62
2019-03-24T07:11:29.539Z,26.10
2019-03-24T07:13:56.181Z,24.80
2019-03-24T07:16:22.924Z,26.30
2019-03-24T07:18:49.581Z,25.60
2019-03-24T07:21:16.244Z,23.18
2019-03-24T07:23:42.982Z,24.18
2019-03-24T07:26:09.655Z,24.45
2019-03-24T07:28:36.293Z,23.65
2019-03-24T07:31:02.994Z,23.40
2019-03-24T07:33:29.725Z,22.07
2019-03-24T07:35:56.435Z,23.10
2019-03-24T07:38:23.115Z,21.68
2019-03-24T07:40:49.854Z,21.57
2019-03-24T07:43:16.567Z,21.60
2019-03-24T07:45:43.280Z,21.70
2019-03-24T07:48:18.754Z,21.75
2019-03-24T07:50:38.501Z,21.57
2019-03-24T07:53:05.286Z,22.55
2019-03-24T07:55:32.084Z,22.85
2019-03-24T07:57:58.781Z,21.23
2019-03-24T08:00:34.301Z,21.55
2019-03-24T08:03:01.026Z,20.02
2019-03-24T08:05:27.774Z,20.60
2019-03-24T08:07:54.455Z,21.40
2019-03-24T08:10:21.184Z,21.27
2019-03-24T08:12:47.999Z,20.80
2019-03-24T08:15:14.802Z,21.52
2019-03-24T08:17:41.429Z,22.05
2019-03-24T08:20:08.269Z,22.82
2019-03-24T08:22:34.955Z,23.00
2019-03-24T08:25:03.099Z,21.45
2019-03-24T08:27:29.819Z,22.58
2019-03-24T08:29:56.519Z,23.42
2019-03-24T08:32:23.191Z,22.22
2019-03-24T08:34:49.863Z,22.48
2019-03-24T08:37:16.705Z,23.35
2019-03-24T08:39:44.336Z,23.57
2019-03-24T08:42:11.045Z,20.88
2019-03-24T08:44:37.744Z,20.48
2019-03-24T08:47:04.419Z,20.75
2019-03-24T08:49:32.083Z,21.07
2019-03-24T08:51:58.818Z,19.92
2019-03-24T08:54:25.435Z,19.62
2019-03-24T08:56:52.091Z,20.68
2019-03-24T08:59:18.830Z,21.05
2019-03-24T09:01:45.489Z,19.12
2019-03-24T09:04:12.353Z,19.40
2019-03-24T09:06:39.074Z,20.45
2019-03-24T09:09:06.182Z,20.45
2019-03-24T09:11:32.859Z,19.82
2019-03-24T09:13:59.556Z,20.30
2019-03-24T09:16:26.257Z,20.23
2019-03-24T09:18:53.208Z,19.60
2019-03-24T09:21:21.187Z,20.80
2019-03-24T09:23:47.786Z,20.05
2019-03-24T09:26:14.508Z,21.05
2019-03-24T09:28:41.185Z,20.32
2019-03-24T09:31:07.940Z,20.43
2019-03-24T09:33:34.670Z,19.92
2019-03-24T09:36:01.425Z,19.73
2019-03-24T09:38:28.033Z,19.82
2019-03-24T09:40:54.735Z,18.62
2019-03-24T09:43:21.401Z,18.80
2019-03-24T09:45:48.107Z,18.40
2019-03-24T09:48:14.822Z,17.65
2019-03-24T09:50:41.534Z,17.27
2019-03-24T09:53:08.159Z,15.32
2019-03-24T09:55:34.834Z,15.55
2019-03-24T09:58:01.543Z,15.48
2019-03-24T10:00:28.178Z,17.15
2019-03-24T10:02:54.926Z,15.85
2019-03-24T10:05:22.063Z,15.68
2019-03-24T10:07:48.731Z,15.25
2019-03-24T10:10:15.502Z,15.18
2019-03-24T10:12:42.225Z,15.05
2019-03-24T10:15:08.962Z,16.30
2019-03-24T10:17:35.678Z,16.32
2019-03-24T10:20:02.469Z,14.85
2019-03-24T10:22:29.257Z,15.28
2019-03-24T10:24:55.991Z,15.48
2019-03-24T10:27:22.731Z,15.15
2019-03-24T10:29:49.353Z,14.38
2019-03-24T10:32:15.986Z,15.23
2019-03-24T10:34:42.737Z,15.10
2019-03-24T10:37:09.361Z,14.78
2019-03-24T10:39:35.992Z,16.05
2019-03-24T10:42:02.818Z,15.20
2019-03-24T10:44:29.456Z,14.47
2019-03-24T10:46:56.180Z,15.32
2019-03-24T10:49:25.121Z,13.72
2019-03-24T10:51:51.435Z,14.47
2019-03-24T10:54:18.084Z,14.00
2019-03-24T10:56:45.801Z,12.98
2019-03-24T10:59:12.405Z,10.48
2019-03-24T11:01:39.026Z,10.60
2019-03-24T11:04:06.168Z,12.10
2019-03-24T11:06:32.866Z,10.78
2019-03-24T11:08:59.529Z,11.90
2019-03-24T11:11:26.232Z,10.65
2019-03-24T11:13:52.873Z,11.18
2019-03-24T11:16:19.578Z,11.33
2019-03-24T11:18:46.254Z,8.88
2019-03-24T11:21:12.933Z,8.00
2019-03-24T11:23:40.593Z,9.73
2019-03-24T11:26:07.350Z,10.25
2019-03-24T11:28:33.983Z,10.30
2019-03-24T11:31:00.711Z,8.78
2019-03-24T11:33:29.558Z,9.65
2019-03-24T11:35:56.070Z,9.15
2019-03-24T11:38:22.817Z,10.10
2019-03-24T11:40:49.541Z,9.65
2019-03-24T11:43:16.415Z,9.20
2019-03-24T11:45:43.161Z,9.23
2019-03-24T11:48:09.919Z,8.20
2019-03-24T11:50:36.528Z,8.00
2019-03-24T11:53:03.211Z,7.87
2019-03-24T11:55:29.924Z,6.60
2019-03-24T11:58:05.355Z,7.58
2019-03-24T12:00:32.785Z,7.20
2019-03-24T12:02:59.533Z,6.90
2019-03-24T12:05:26.179Z,7.28
2019-03-24T12:07:52.835Z,6.50
2019-03-24T12:10:19.600Z,6.45
2019-03-24T12:12:46.237Z,4.97
2019-03-24T12:15:12.926Z,5.28
2019-03-24T12:17:39.707Z,5.35
2019-03-24T12:20:07.531Z,5.20
2019-03-24T12:22:34.160Z,5.75
2019-03-24T12:25:00.913Z,7.58
2019-03-24T12:27:27.549Z,6.00
2019-03-24T12:29:54.236Z,4.20
2019-03-24T12:32:20.930Z,3.83
2019-03-24T12:34:47.647Z,4.00
2019-03-24T12:37:14.756Z,4.78
2019-03-24T12:39:41.498Z,5.25
2019-03-24T12:42:08.186Z,5.83
2019-03-24T12:44:34.846Z,5.33
2019-03-24T12:47:01.583Z,4.53
2019-03-24T12:49:28.323Z,5.25
2019-03-24T12:51:54.995Z,4.80
2019-03-24T12:54:22.778Z,5.30
2019-03-24T12:56:49.435Z,4.97
2019-03-24T12:59:16.114Z,5.00
2019-03-24T13:01:42.884Z,5.22
2019-03-24T13:04:09.491Z,5.42
2019-03-24T13:06:36.217Z,5.05
2019-03-24T13:09:05.121Z,5.97
2019-03-24T13:11:31.787Z,6.10
2019-03-24T13:13:58.526Z,6.22
2019-03-24T13:16:25.225Z,6.30
2019-03-24T13:18:51.958Z,5.60
2019-03-24T13:21:18.685Z,5.65
2019-03-24T13:23:45.429Z,5.75
2019-03-24T13:26:13.030Z,5.15
2019-03-24T13:28:39.667Z,5.25
2019-03-24T13:31:06.368Z,6.20
2019-03-24T13:33:32.972Z,5.85
2019-03-24T13:36:01.474Z,5.10
2019-03-24T13:38:28.173Z,4.60
2019-03-24T13:40:54.887Z,4.80
2019-03-24T13:43:21.531Z,4.70
2019-03-24T13:45:48.322Z,4.37
2019-03-24T13:48:14.954Z,4.70
2019-03-24T13:50:41.633Z,4.60
2019-03-24T13:53:08.429Z,4.55
2019-03-24T13:55:35.085Z,4.78
2019-03-24T13:58:01.943Z,4.40
2019-03-24T14:00:28.674Z,4.40
2019-03-24T14:02:55.277Z,4.95
2019-03-24T14:05:21.954Z,4.62
2019-03-24T14:07:48.669Z,4.40
2019-03-24T14:10:15.307Z,4.67
2019-03-24T14:12:41.973Z,4.72
2019-03-24T14:15:08.794Z,4.92
2019-03-24T14:17:36.530Z,4.47
2019-03-24T14:20:05.526Z,4.85
2019-03-24T14:22:32.324Z,4.03
2019-03-24T14:24:58.957Z,4.10
2019-03-24T14:27:25.708Z,4.20
2019-03-24T14:29:52.489Z,4.00
2019-03-24T14:32:19.218Z,4.92
2019-03-24T14:34:45.939Z,4.12
2019-03-24T14:37:12.675Z,4.47
2019-03-24T14:39:39.308Z,3.58
2019-03-24T14:42:06.000Z,4.05
2019-03-24T14:44:32.706Z,4.08
2019-03-24T14:46:59.347Z,4.22
2019-03-24T14:49:26.089Z,4.12
2019-03-24T14:51:52.796Z,4.00
2019-03-24T14:54:19.429Z,3.80
2019-03-24T14:56:46.096Z,3.90
2019-03-24T14:59:12.816Z,4.03
2019-03-24T15:01:39.439Z,4.35
2019-03-24T15:04:06.132Z,4.37
2019-03-24T15:06:32.839Z,4.10
2019-03-24T15:08:59.506Z,5.62
2019-03-24T15:11:26.168Z,5.50
2019-03-24T15:13:52.898Z,5.15
2019-03-24T15:16:19.503Z,4.95
2019-03-24T15:18:46.208Z,4.90
2019-03-24T15:21:12.946Z,4.60
2019-03-24T15:23:39.622Z,5.20
2019-03-24T15:26:06.332Z,5.55
2019-03-24T15:28:33.190Z,4.87
2019-03-24T15:30:59.826Z,4.40
2019-03-24T15:33:26.509Z,4.70
2019-03-24T15:35:53.226Z,4.58
2019-03-24T15:38:19.934Z,4.30
2019-03-24T15:40:49.500Z,4.62
2019-03-24T15:43:15.322Z,4.35
2019-03-24T15:45:41.962Z,4.12
2019-03-24T15:48:08.756Z,4.03
2019-03-24T15:50:35.467Z,4.12
2019-03-24T15:53:02.225Z,4.30
2019-03-24T15:55:28.950Z,3.47
2019-03-24T15:57:55.658Z,3.80
2019-03-24T16:00:39.982Z,4.10
2019-03-24T16:03:06.674Z,4.28
2019-03-24T16:05:33.377Z,4.30
2019-03-24T16:08:00.110Z,4.30
2019-03-24T16:10:34.848Z,3.92
2019-03-24T16:12:55.524Z,4.50
2019-03-24T16:15:22.130Z,4.45
2019-03-24T16:17:48.794Z,4.25
2019-03-24T16:20:15.493Z,4.28
2019-03-24T16:22:42.150Z,5.08
2019-03-24T16:25:09.193Z,4.87
2019-03-24T16:27:35.877Z,4.20
2019-03-24T16:30:05.470Z,3.50
2019-03-24T16:32:32.214Z,2.70
2019-03-24T16:34:58.976Z,2.37
2019-03-24T16:37:25.650Z,2.72
2019-03-24T16:39:52.347Z,2.17
2019-03-24T16:42:19.050Z,2.30
2019-03-24T16:44:45.754Z,2.20
2019-03-24T16:47:12.491Z,2.70
2019-03-24T16:49:39.210Z,2.40
2019-03-24T16:52:05.812Z,2.90
2019-03-24T16:54:32.471Z,2.80
2019-03-24T16:56:59.190Z,2.50
2019-03-24T16:59:25.843Z,2.70
2019-03-24T17:01:52.462Z,3.02
2019-03-24T17:04:19.258Z,2.90
2019-03-24T17:06:45.882Z,2.80
2019-03-24T17:09:12.491Z,3.08
2019-03-24T17:11:39.187Z,3.70
2019-03-24T17:14:05.852Z,3.47
2019-03-24T17:16:32.487Z,3.40
2019-03-24T17:18:59.180Z,3.67
2019-03-24T17:21:25.822Z,4.70
2019-03-24T17:23:52.452Z,4.65
2019-03-24T17:26:19.141Z,4.97
2019-03-24T17:28:46.973Z,5.08
2019-03-24T17:31:14.693Z,4.72
2019-03-24T17:33:41.423Z,4.53
2019-03-24T17:36:08.147Z,4.67
2019-03-24T17:38:34.844Z,4.62
2019-03-24T17:41:01.544Z,4.28
2019-03-24T17:43:28.233Z,4.50
2019-03-24T17:45:54.931Z,4.05
2019-03-24T17:48:21.659Z,4.47
2019-03-24T17:50:48.299Z,4.33
2019-03-24T17:53:14.961Z,4.45
2019-03-24T17:55:41.682Z,5.25
2019-03-24T17:58:08.339Z,4.70
2019-03-24T18:00:40.434Z,4.70
2019-03-24T18:03:07.309Z,4.50
2019-03-24T18:05:34.005Z,4.53
2019-03-24T18:08:00.733Z,5.35
2019-03-24T18:10:27.475Z,5.12
2019-03-24T18:12:54.108Z,5.28
2019-03-24T18:15:20.798Z,4.72
2019-03-24T18:17:47.496Z,5.17
2019-03-24T18:20:17.843Z,5.05
2019-03-24T18:22:44.571Z,6.05
2019-03-24T18:25:11.311Z,6.03
2019-03-24T18:27:37.920Z,5.70
2019-03-24T18:30:07.389Z,6.62
2019-03-24T18:32:34.199Z,6.53
2019-03-24T18:35:00.802Z,6.87
2019-03-24T18:37:27.497Z,6.30
2019-03-24T18:39:54.204Z,7.55
2019-03-24T18:42:20.912Z,6.47
2019-03-24T18:44:47.705Z,5.65
2019-03-24T18:47:14.530Z,5.78
2019-03-24T18:49:41.155Z,5.50
2019-03-24T18:52:08.046Z,5.10
2019-03-24T18:54:34.722Z,5.55
2019-03-24T18:57:01.440Z,5.45
2019-03-24T18:59:28.232Z,4.97
2019-03-24T19:01:55.018Z,4.92
2019-03-24T19:04:21.697Z,5.08
2019-03-24T19:06:48.372Z,5.65
2019-03-24T19:09:15.119Z,5.50
2019-03-24T19:11:41.718Z,5.67
2019-03-24T19:14:08.393Z,5.08
2019-03-24T19:16:35.126Z,5.30
2019-03-24T19:19:01.891Z,5.42
2019-03-24T19:21:28.524Z,5.42
2019-03-24T19:23:56.000Z,5.67
2019-03-24T19:26:22.758Z,5.55
2019-03-24T19:28:49.469Z,6.50
2019-03-24T19:31:16.138Z,6.40
2019-03-24T19:33:42.853Z,5.28
2019-03-24T19:36:09.660Z,5.75
2019-03-24T19:38:36.649Z,6.78
2019-03-24T19:41:03.254Z,4.90
2019-03-24T19:43:29.950Z,5.05
2019-03-24T19:45:56.658Z,5.20
2019-03-24T19:48:23.380Z,6.62
2019-03-24T19:50:50.222Z,10.78
2019-03-24T19:53:16.940Z,9.85
2019-03-24T19:55:43.569Z,7.40
2019-03-24T19:58:10.269Z,7.22
2019-03-24T20:00:36.968Z,8.23
2019-03-24T20:03:04.604Z,9.13
2019-03-24T20:05:31.246Z,11.75
2019-03-24T20:07:58.099Z,11.50
2019-03-24T20:10:24.710Z,10.23
2019-03-24T20:12:51.394Z,11.85
2019-03-24T20:15:18.055Z,11.22
2019-03-24T20:17:44.706Z,10.32
2019-03-24T20:20:11.380Z,10.60
2019-03-24T20:22:38.091Z,10.03
2019-03-24T20:25:06.544Z,10.55
2019-03-24T20:27:33.322Z,9.83
2019-03-24T20:30:00.041Z,10.25
2019-03-24T20:32:26.817Z,10.35
2019-03-24T20:34:53.527Z,10.18
2019-03-24T20:37:20.303Z,10.85
2019-03-24T20:39:47.050Z,10.98
2019-03-24T20:42:13.766Z,10.65
2019-03-24T20:44:40.486Z,10.20
2019-03-24T20:47:07.130Z,10.23
2019-03-24T20:49:33.950Z,9.70
2019-03-24T20:52:00.670Z,8.98
2019-03-24T20:54:27.386Z,9.68
2019-03-24T20:56:54.196Z,9.55
2019-03-24T20:59:21.257Z,9.93
2019-03-24T21:01:47.867Z,10.43
2019-03-24T21:04:14.546Z,10.00
2019-03-24T21:06:41.254Z,9.95
2019-03-24T21:09:08.226Z,10.08
2019-03-24T21:11:34.972Z,9.98
2019-03-24T21:14:01.676Z,9.10
2019-03-24T21:16:28.340Z,9.45
2019-03-24T21:18:55.001Z,9.53
2019-03-24T21:21:22.833Z,9.40
2019-03-24T21:23:49.471Z,9.18
2019-03-24T21:26:16.147Z,8.20
2019-03-24T21:28:42.839Z,8.48
2019-03-24T21:31:09.483Z,9.00
2019-03-24T21:33:36.144Z,9.30
2019-03-24T21:36:04.075Z,9.03
2019-03-24T21:38:31.078Z,9.48
2019-03-24T21:40:57.710Z,9.58
2019-03-24T21:43:24.495Z,8.93
2019-03-24T21:45:51.119Z,8.35
2019-03-24T21:48:17.798Z,8.30
2019-03-24T21:50:44.478Z,8.15
2019-03-24T21:53:11.128Z,7.95
2019-03-24T21:55:37.785Z,7.12
2019-03-24T21:58:05.526Z,6.83
2019-03-24T22:00:33.728Z,6.80
2019-03-24T22:03:00.432Z,7.03
2019-03-24T22:05:27.129Z,7.10
2019-03-24T22:07:53.774Z,6.08
2019-03-24T22:10:21.447Z,6.72
2019-03-24T22:12:48.173Z,6.75
2019-03-24T22:15:14.941Z,6.62
2019-03-24T22:17:41.645Z,6.60
2019-03-24T22:20:08.455Z,6.92
2019-03-24T22:22:35.070Z,6.40
2019-03-24T22:25:01.750Z,6.15
2019-03-24T22:27:28.418Z,7.20
2019-03-24T22:29:55.121Z,6.70
2019-03-24T22:32:21.830Z,6.40
2019-03-24T22:34:48.575Z,6.67
2019-03-24T22:37:16.238Z,6.70
2019-03-24T22:39:43.138Z,6.92
2019-03-24T22:42:09.841Z,6.97
2019-03-24T22:44:36.523Z,6.87
2019-03-24T22:47:03.239Z,6.65
2019-03-24T22:49:29.937Z,6.92
2019-03-24T22:52:06.804Z,6.60
2019-03-24T22:54:25.389Z,6.15
2019-03-24T22:56:52.128Z,6.40
2019-03-24T22:59:18.847Z,6.60
2019-03-24T23:01:45.516Z,7.08
2019-03-24T23:04:12.210Z,6.33
2019-03-24T23:06:38.994Z,6.53
2019-03-24T23:09:06.891Z,7.05
2019-03-24T23:11:33.627Z,6.75
2019-03-24T23:14:00.259Z,6.80
2019-03-24T23:16:26.921Z,6.42
2019-03-24T23:18:53.630Z,6.65
2019-03-24T23:21:20.238Z,6.62
2019-03-24T23:23:46.869Z,6.15
2019-03-24T23:26:13.545Z,6.70
2019-03-24T23:28:40.182Z,6.75
2019-03-24T23:31:06.856Z,7.53
2019-03-24T23:33:33.558Z,6.75
2019-03-24T23:36:00.158Z,7.53
2019-03-24T23:38:26.837Z,6.65
2019-03-24T23:40:53.515Z,6.67
2019-03-24T23:43:20.160Z,6.90
2019-03-24T23:45:46.758Z,6.75
2019-03-24T23:48:13.454Z,6.60
2019-03-24T23:50:40.127Z,7.22
2019-03-24T23:53:06.800Z,7.12
2019-03-24T23:55:33.552Z,7.40
2019-03-24T23:58:00.190Z,7.28
